X  Zatvori METAR podaci zračne luke     LDPL Pula Airport
Temperatura
12°C Temperatura
0°C Točka rosišta
44% Vlaga



Vjetar
16 KM/S
10 MPS
4 M/S
9 Čvorovi



70°
ISI
Trenutna situacija

Vedro Vedro
Tlak zraka 1023.92 (hPa) - 30.24 (inHg)
Vidljivost 6.2 (milje) - 10 (km)
Zračna luka
Kôd zračne luke LDPL

Lokacija: Pula Airport
Udaljenost: 39 (km)

Metar:
LDPL 271400Z 07009KT CAVOK 12/00 Q1024 NOSIG

Vrijeme: 27-11-2022 15:00 CET